Latest Weather Observations for Weipa

IDQ60801

Issued at 8:52 am EST Wednesday 18 September 2019 (issued every 10 minutes, with the page automatically refreshed every 10 minutes)

About weather observations | Map of weather stations | Latest weather observations for QLD | Other Formats
Station Details ID: 027045 Name: WEIPA AERO Lat: -12.68 Lon: 141.92 Height: 17.96 m
Data from the previous 72 hours. | See also: Recent months at Weipa
Date/Time
EST
Temp
°C
App
Temp
°C
Dew
Point
°C
Rel
Hum
%
Delta-T
°C
Wind Press
QNH
hPa
Press
MSL
hPa
Rain since
9am
mm
Dir  Spd
km/h
Gust
km/h
Spd
kts
Gust
kts
18/08:30am 23.9 23.4 17.9 69 3.8 SE 17 20 9 11 1018.2 1018.1 0.0
18/08:00am 22.7 23.3 17.8 74 3.0 SE 11 15 6 8 1018.0 1017.9 0.0
18/07:30am 21.5 23.7 17.5 78 2.5 SE 2 7 1 4 1017.7 1017.6 0.0
18/07:00am 19.6 22.0 17.0 85 1.6 CALM 0 0 0 0 1017.4 1017.3 0.0
18/06:30am 19.2 21.4 16.4 84 1.7 CALM 0 0 0 0 1017.1 1017.0 0.0
18/06:00am 19.6 21.8 16.4 82 1.9 CALM 0 6 0 3 1016.8 1016.7 0.0
18/05:30am 20.4 21.7 17.0 81 2.1 E 6 7 3 4 1016.5 1016.4 0.0
18/05:00am 21.1 22.2 17.1 78 2.4 ESE 7 9 4 5 1016.3 1016.2 0.0
18/04:30am 21.7 22.2 17.5 77 2.6 SE 11 15 6 8 1015.9 1015.8 0.0
18/04:00am 22.0 22.6 17.8 77 2.6 SE 11 20 6 11 1015.9 1015.8 0.0
18/03:30am 22.0 22.7 18.0 78 2.5 SE 11 13 6 7 1015.9 1015.8 0.0
18/03:00am 21.3 22.0 17.9 81 2.1 E 11 13 6 7 1016.2 1016.1 0.0
18/02:30am 20.0 21.3 17.2 84 1.7 ESE 6 7 3 4 1016.3 1016.2 0.0
18/02:00am 19.5 21.6 16.3 82 1.9 CALM 0 7 0 4 1016.3 1016.2 0.0
18/01:30am 20.2 22.4 16.6 80 2.2 CALM 0 0 0 0 1016.5 1016.4 0.0
18/01:00am 21.2 22.8 16.8 76 2.7 NE 4 7 2 4 1016.6 1016.5 0.0
18/12:30am 21.7 22.9 17.3 76 2.7 NNE 7 9 4 5 1016.8 1016.7 0.0
18/12:00am 21.9 22.6 17.1 74 2.9 NE 9 15 5 8 1017.2 1017.1 0.0
 
Date/Time
EST
Temp
°C
App
Temp
°C
Dew
Point
°C
Rel
Hum
%
Delta-T
°C
Wind Press
QNH
hPa
Press
MSL
hPa
Rain since
9am
mm
Dir  Spd
km/h
Gust
km/h
Spd
kts
Gust
kts
17/11:30pm 22.4 22.7 17.1 72 3.3 NE 11 15 6 8 1017.3 1017.2 0.0
17/11:00pm 22.3 23.9 18.3 78 2.5 NE 7 11 4 6 1017.4 1017.3 0.0
17/10:30pm 22.5 24.7 19.5 83 1.9 NE 7 13 4 7 1017.4 1017.3 0.0
17/10:00pm 22.7 25.1 19.7 83 1.9 NE 6 7 3 4 1017.1 1017.0 0.0
17/09:30pm 22.8 25.0 19.6 82 2.0 NE 7 11 4 6 1017.0 1016.9 0.0
17/09:00pm 23.3 26.8 19.5 79 2.4 CALM 0 0 0 0 1016.6 1016.5 0.0
17/08:30pm 23.7 25.8 19.4 77 2.8 N 7 9 4 5 1016.2 1016.1 0.0
17/08:00pm 24.0 26.2 19.7 77 2.8 NNW 7 11 4 6 1015.8 1015.7 0.0
17/07:30pm 24.3 26.2 19.8 76 2.9 NW 9 15 5 8 1015.3 1015.2 0.0
17/07:00pm 24.5 26.0 19.8 75 3.0 NNW 11 13 6 7 1014.9 1014.8 0.0
17/06:30pm 24.8 25.9 19.6 73 3.3 WNW 13 17 7 9 1014.2 1014.1 0.0
17/06:20pm 25.1 26.1 19.5 71 3.6 NW 13 17 7 9 1014.2 1014.1 0.0
17/06:00pm 25.5 27.2 19.4 69 3.9 W 9 15 5 8 1013.9 1013.8 0.0
17/05:30pm 26.3 27.2 19.2 65 4.6 W 13 19 7 10 1013.6 1013.5 0.0
17/05:00pm 26.9 27.7 19.0 62 5.1 WSW 13 20 7 11 1013.4 1013.3 0.0
17/04:33pm 27.3 27.4 18.3 58 5.7 W 15 24 8 13 1013.4 1013.3 0.0
17/04:30pm 27.4 27.0 18.1 57 5.9 WSW 17 24 9 13 1013.4 1013.3 0.0
17/04:00pm 28.0 27.2 18.1 55 6.3 W 19 28 10 15 1013.2 1013.1 0.0
17/03:30pm 28.3 27.7 18.4 55 6.3 W 19 28 10 15 1013.1 1013.0 0.0
17/03:00pm 28.9 28.0 18.1 52 6.9 W 20 28 11 15 1013.2 1013.1 0.0
17/02:30pm 31.6 32.0 16.4 40 9.5 ESE 9 20 5 11 1013.5 1013.4 0.0
17/02:00pm 32.7 29.7 10.7 26 12.7 E 17 26 9 14 1013.6 1013.5 0.0
17/01:30pm 31.7 29.7 11.5 29 11.8 SE 13 24 7 13 1014.1 1014.0 0.0
17/01:00pm 31.7 28.9 11.5 29 11.8 SE 17 30 9 16 1014.6 1014.5 0.0
17/12:30pm 31.1 28.7 12.5 32 11.0 ESE 17 24 9 13 1015.2 1015.1 0.0
17/12:00pm 30.5 27.4 13.3 35 10.3 SE 22 37 12 20 1015.8 1015.7 0.0
17/11:30am 30.3 27.7 14.8 39 9.5 SE 22 33 12 18 1016.4 1016.3 0.0
17/11:00am 29.6 26.3 15.0 41 8.9 ESE 26 35 14 19 1016.8 1016.7 0.0
17/10:30am 28.2 25.5 15.5 46 7.8 ESE 24 35 13 19 1017.2 1017.1 0.0
17/10:00am 27.1 24.2 16.1 51 6.8 E 26 35 14 19 1017.3 1017.2 0.0
17/09:30am 26.2 24.2 17.3 58 5.6 ESE 24 33 13 18 1017.2 1017.1 0.0
17/09:00am 24.3 22.6 17.3 65 4.3 E 22 30 12 16 1017.4 1017.3 0.0
17/08:30am 23.7 22.8 17.7 69 3.7 ESE 19 24 10 13 1017.2 1017.1 0.0
17/08:00am 21.9 22.4 17.5 76 2.7 SE 11 13 6 7 1016.9 1016.8 0.0
17/07:30am 20.0 21.3 17.0 83 1.8 SE 6 9 3 5 1016.5 1016.4 0.0
17/07:00am 18.0 20.1 16.2 89 1.1 CALM 0 0 0 0 1016.2 1016.1 0.0
17/06:30am 17.0 18.6 15.0 88 1.2 CALM 0 0 0 0 1016.1 1016.0 0.0
17/06:00am 17.2 19.0 15.4 89 1.1 CALM 0 0 0 0 1015.8 1015.7 0.0
17/05:30am 17.1 18.0 15.1 88 1.2 SSE 4 9 2 5 1015.5 1015.4 0.0
17/05:00am 17.6 19.3 15.2 86 1.4 CALM 0 0 0 0 1015.3 1015.2 0.0
17/04:30am 17.9 19.8 15.7 87 1.3 CALM 0 0 0 0 1015.0 1014.9 0.0
17/04:00am 18.1 20.0 15.7 86 1.4 CALM 0 0 0 0 1014.8 1014.7 0.0
17/03:30am 18.7 20.6 15.8 83 1.7 CALM 0 0 0 0 1014.8 1014.7 0.0
17/03:00am 19.6 20.6 16.3 81 2.0 SE 6 7 3 4 1014.8 1014.7 0.0
17/02:30am 19.7 20.6 16.0 79 2.2 ESE 6 7 3 4 1015.1 1015.0 0.0
17/02:00am 20.3 21.2 16.5 79 2.3 SE 7 11 4 6 1015.3 1015.2 0.0
17/01:30am 20.5 20.9 16.3 77 2.5 SE 9 11 5 6 1015.6 1015.5 0.0
17/01:00am 20.8 21.5 16.0 74 2.9 SSE 7 11 4 6 1015.9 1015.8 0.0
17/12:30am 21.8 21.7 16.1 70 3.4 SE 11 15 6 8 1016.1 1016.0 0.0
17/12:00am 22.2 22.0 15.8 67 3.8 ESE 11 13 6 7 1016.3 1016.2 0.0
 
Date/Time
EST
Temp
°C
App
Temp
°C
Dew
Point
°C
Rel
Hum
%
Delta-T
°C
Wind Press
QNH
hPa
Press
MSL
hPa
Rain since
9am
mm
Dir  Spd
km/h
Gust
km/h
Spd
kts
Gust
kts
16/11:30pm 22.5 21.9 15.6 65 4.1 E 13 17 7 9 1016.3 1016.2 0.0
16/11:00pm 22.8 22.7 15.9 65 4.2 E 11 15 6 8 1016.2 1016.1 0.0
16/10:30pm 23.4 23.3 16.0 63 4.5 E 11 13 6 7 1016.2 1016.1 0.0
16/10:00pm 23.9 23.0 15.9 61 4.8 E 15 20 8 11 1016.1 1016.0 0.0
16/09:30pm 24.5 23.3 16.0 59 5.2 E 17 24 9 13 1016.1 1016.0 0.0
16/09:00pm 25.0 23.5 16.2 58 5.4 E 19 24 10 13 1015.7 1015.6 0.0
16/08:30pm 25.5 24.2 15.8 55 5.9 E 17 26 9 14 1015.4 1015.3 0.0
16/08:00pm 26.0 24.1 15.7 53 6.3 E 20 28 11 15 1014.9 1014.8 0.0
16/07:30pm 26.4 25.1 15.8 52 6.5 ENE 17 24 9 13 1014.5 1014.4 0.0
16/07:00pm 27.0 25.9 15.4 49 7.1 E 15 20 8 11 1014.0 1013.9 0.0
16/06:30pm 27.8 25.7 15.1 46 7.7 ENE 20 26 11 14 1013.5 1013.4 0.0
16/06:00pm 28.5 27.0 15.4 45 8.0 ENE 17 24 9 13 1013.1 1013.0 0.0
16/05:30pm 29.3 26.8 15.1 42 8.7 ENE 22 32 12 17 1013.1 1013.0 0.0
16/05:00pm 30.0 27.8 14.9 39 9.2 ENE 20 28 11 15 1013.0 1012.9 0.0
16/04:30pm 30.4 28.2 14.9 39 9.5 ENE 20 32 11 17 1013.0 1012.9 0.0
16/04:00pm 29.9 26.8 14.4 38 9.4 ENE 24 33 13 18 1013.1 1013.0 0.0
16/03:30pm 30.5 27.7 14.2 37 9.9 ENE 22 30 12 16 1013.2 1013.1 0.0
16/03:00pm 31.3 28.7 14.9 37 10.1 ENE 22 30 12 16 1013.4 1013.3 0.0
16/02:30pm 30.6 27.2 13.8 35 10.1 E 24 33 13 18 1013.8 1013.7 0.0
16/02:00pm 31.1 28.5 13.8 34 10.4 ENE 20 44 11 24 1013.9 1013.8 0.0
16/01:30pm 31.1 28.3 14.3 36 10.2 ENE 22 33 12 18 1014.4 1014.3 0.0
16/01:00pm 30.7 28.8 14.3 36 9.9 E 17 32 9 17 1014.7 1014.6 0.0
16/12:30pm 31.1 27.4 13.8 34 10.4 ESE 26 37 14 20 1015.2 1015.1 0.0
16/12:00pm 29.7 26.8 13.9 38 9.5 ESE 22 33 12 18 1015.8 1015.7 0.0
16/11:30am 28.6 25.3 14.1 41 8.7 E 24 35 13 19 1016.4 1016.3 0.0
16/11:00am 28.0 25.2 15.3 46 7.7 ESE 24 35 13 19 1016.7 1016.6 0.0
16/10:30am 27.5 24.1 15.8 48 7.2 ESE 28 37 15 20 1016.8 1016.7 0.0
16/10:00am 26.5 23.8 16.7 55 6.1 SE 26 33 14 18 1017.0 1016.9 0.0
16/09:30am 25.7 22.6 16.5 56 5.7 ESE 28 37 15 20 1017.2 1017.1 0.0
16/09:00am 24.5 23.7 17.0 63 4.6 SE 17 24 9 13 1017.3 1017.2 0.0
16/08:30am 22.6 22.5 16.9 70 3.5 SE 13 17 7 9 1017.5 1017.4 0.0
16/08:00am 21.5 21.2 16.5 73 3.0 SE 13 17 7 9 1017.3 1017.2 0.0
16/07:30am 20.4 21.5 17.0 81 2.1 SSE 7 11 4 6 1017.1 1017.0 0.0
16/07:00am 19.3 19.9 16.7 85 1.6 SSE 9 9 5 5 1016.7 1016.6 0.0
16/06:30am 19.4 20.4 16.4 83 1.8 SSE 6 7 3 4 1016.4 1016.3 0.0
16/06:00am 19.7 20.6 16.5 82 1.9 SSE 7 11 4 6 1016.0 1015.9 0.0
16/05:30am 20.0 20.5 16.6 81 2.1 SSE 9 11 5 6 1015.8 1015.7 0.0
16/05:00am 20.8 21.8 16.8 78 2.4 SSE 7 9 4 5 1015.7 1015.6 0.0
16/04:30am 21.7 22.8 17.1 75 2.8 SE 7 9 4 5 1015.7 1015.6 0.0
16/04:00am 21.4 22.0 16.8 75 2.8 SSE 9 11 5 6 1015.5 1015.4 0.0
16/03:30am 21.4 22.4 16.8 75 2.8 SE 7 11 4 6 1015.2 1015.1 0.0
16/03:00am 21.5 22.5 16.9 75 2.8 SE 7 9 4 5 1015.2 1015.1 0.0
16/02:30am 21.1 21.9 16.3 74 2.9 SSE 7 9 4 5 1015.3 1015.2 0.0
16/02:00am 21.7 22.4 16.2 71 3.3 SE 7 9 4 5 1015.5 1015.4 0.0
16/01:30am 21.8 22.5 16.1 70 3.4 SSE 7 9 4 5 1015.8 1015.7 0.0
16/01:00am 22.3 22.6 16.1 68 3.7 SSE 9 13 5 7 1016.0 1015.9 0.0
16/12:30am 22.2 23.1 16.0 68 3.7 SE 6 9 3 5 1016.4 1016.3 0.0
16/12:00am 21.7 22.3 15.8 69 3.5 SSE 7 9 4 5 1016.6 1016.5 0.0
 
Date/Time
EST
Temp
°C
App
Temp
°C
Dew
Point
°C
Rel
Hum
%
Delta-T
°C
Wind Press
QNH
hPa
Press
MSL
hPa
Rain since
9am
mm
Dir  Spd
km/h
Gust
km/h
Spd
kts
Gust
kts
15/11:30pm 21.4 21.9 15.5 69 3.5 SE 7 9 4 5 1016.6 1016.5 0.0
15/11:00pm 22.1 22.5 15.2 65 4.1 E 7 9 4 5 1016.6 1016.5 0.0
15/10:30pm 22.8 22.8 15.1 62 4.6 E 9 11 5 6 1016.7 1016.6 0.0
15/10:00pm 23.5 23.1 15.3 60 4.9 E 11 13 6 7 1016.7 1016.6 0.0
15/09:30pm 24.2 22.6 15.1 56 5.5 ESE 17 22 9 12 1016.7 1016.6 0.0
15/09:00pm 24.5 22.8 14.6 54 5.9 E 17 20 9 11 1016.7 1016.6 0.0
15/08:30pm 24.9 22.5 14.4 52 6.2 E 20 28 11 15 1016.4 1016.3 0.0
15/08:00pm 25.5 22.6 14.0 49 6.8 E 22 32 12 17 1016.1 1016.0 0.0
15/07:30pm 25.5 23.3 14.3 50 6.7 E 19 26 10 14 1015.8 1015.7 0.0
15/07:00pm 26.1 23.6 14.2 48 7.1 E 20 32 11 17 1015.3 1015.2 0.0
15/06:30pm 26.8 22.8 14.2 46 7.5 E 28 35 15 19 1014.6 1014.5 0.0
15/06:00pm 27.9 24.7 14.2 43 8.2 E 24 32 13 17 1014.1 1014.0 0.0
15/05:30pm 28.9 24.1 13.9 39 9.0 E 32 41 17 22 1013.7 1013.6 0.0
15/05:00pm 29.5 25.5 12.9 36 9.8 ENE 26 35 14 19 1013.3 1013.2 0.0
15/04:30pm 30.3 26.7 13.1 34 10.2 ENE 24 33 13 18 1013.1 1013.0 0.0
15/04:00pm 30.4 26.7 12.8 34 10.4 E 24 33 13 18 1013.1 1013.0 0.0
15/03:30pm 31.1 26.6 12.5 32 11.0 E 28 41 15 22 1013.0 1012.9 0.0
15/03:00pm 32.1 28.0 12.8 30 11.5 E 26 41 14 22 1013.1 1013.0 0.0
15/02:30pm 31.4 27.1 12.2 30 11.3 E 26 43 14 23 1013.2 1013.1 0.0
15/02:00pm 31.3 27.4 12.2 31 11.2 E 24 37 13 20 1013.4 1013.3 0.0
15/01:30pm 31.0 26.8 12.4 32 11.0 ENE 26 37 14 20 1013.7 1013.6 0.0
15/01:00pm 31.0 27.2 12.4 32 11.0 E 24 35 13 19 1014.3 1014.2 0.0
15/12:30pm 30.1 25.4 12.1 33 10.5 ESE 28 39 15 21 1014.8 1014.7 0.0
15/12:00pm 30.3 26.0 12.2 33 10.6 E 26 37 14 20 1015.4 1015.3 0.0
15/11:30am 29.4 24.6 12.8 36 9.8 ESE 30 37 16 20 1016.0 1015.9 0.0
15/11:00am 29.1 25.2 13.3 37 9.4 E 26 37 14 20 1016.4 1016.3 0.0
15/10:30am 27.8 23.1 13.3 40 8.6 ESE 30 41 16 22 1017.1 1017.0 0.0
15/10:00am 26.7 21.5 13.4 43 7.8 E 33 46 18 25 1017.4 1017.3 0.0
15/09:30am 25.7 21.2 13.9 48 7.0 E 30 39 16 21 1017.7 1017.6 0.0
15/09:00am 25.2 22.1 14.6 51 6.3 ESE 24 35 13 19 1018.0 1017.9 0.0

Other formats

Comma delimited format used in spreadsheet applications
http://www.bom.gov.au/fwo/IDQ60801/IDQ60801.94170.axf

JavaScript Object Notation format (JSON) in row-major order
http://www.bom.gov.au/fwo/IDQ60801/IDQ60801.94170.json

Data quality

Most of these data are generated automatically and are frequently updated. Quality checks on data are not normally performed. It is possible for incorrect values to appear. Refer to information at About Latest Weather Observations and please check the disclaimer before using these data.